createdAt,value
2018-12-06T00:00:37.684Z,5.42
2018-12-06T00:03:08.422Z,5.83
2018-12-06T00:05:38.200Z,6.60
2018-12-06T00:08:15.917Z,5.08
2018-12-06T00:10:45.722Z,5.45
2018-12-06T00:13:15.703Z,4.95
2018-12-06T00:15:46.556Z,5.22
2018-12-06T00:18:16.801Z,5.28
2018-12-06T00:20:46.753Z,5.40
2018-12-06T00:23:17.263Z,4.72
2018-12-06T00:25:48.325Z,4.97
2018-12-06T00:28:18.760Z,5.03
2018-12-06T00:30:49.447Z,5.10
2018-12-06T00:33:19.369Z,5.17
2018-12-06T00:35:49.813Z,4.87
2018-12-06T00:38:19.893Z,4.30
2018-12-06T00:40:50.141Z,4.75
2018-12-06T00:43:23.813Z,4.30
2018-12-06T00:45:55.208Z,4.72
2018-12-06T00:48:25.385Z,5.20
2018-12-06T00:50:55.319Z,5.10
2018-12-06T00:53:26.572Z,5.05
2018-12-06T00:55:57.218Z,3.95
2018-12-06T00:58:27.624Z,5.12
2018-12-06T01:00:58.328Z,4.80
2018-12-06T01:03:29.574Z,5.35
2018-12-06T01:06:00.574Z,5.42
2018-12-06T01:08:34.916Z,5.05
2018-12-06T01:11:07.302Z,5.25
2018-12-06T01:13:37.633Z,5.90
2018-12-06T01:16:08.670Z,5.50
2018-12-06T01:18:40.253Z,6.22
2018-12-06T01:21:10.667Z,5.87
2018-12-06T01:23:40.605Z,4.83
2018-12-06T01:26:10.937Z,5.80
2018-12-06T01:28:41.155Z,4.92
2018-12-06T01:31:12.642Z,4.28
2018-12-06T01:33:42.947Z,6.50
2018-12-06T01:36:12.657Z,4.80
2018-12-06T01:38:42.741Z,4.83
2018-12-06T01:41:12.736Z,5.95
2018-12-06T01:43:42.517Z,4.85
2018-12-06T01:46:12.286Z,5.30
2018-12-06T01:48:41.973Z,4.60
2018-12-06T01:51:11.618Z,5.58
2018-12-06T01:53:41.352Z,6.15
2018-12-06T01:56:11.294Z,5.47
2018-12-06T01:58:41.653Z,5.30
2018-12-06T02:01:12.861Z,5.30
2018-12-06T02:03:43.117Z,5.15
2018-12-06T02:06:14.336Z,5.75
2018-12-06T02:08:45.418Z,4.83
2018-12-06T02:11:15.516Z,4.92
2018-12-06T02:13:46.529Z,5.65
2018-12-06T02:16:16.206Z,6.90
2018-12-06T02:18:45.753Z,4.42
2018-12-06T02:21:15.883Z,4.80
2018-12-06T02:23:46.178Z,5.15
2018-12-06T02:26:17.023Z,4.92
2018-12-06T02:28:48.694Z,4.60
2018-12-06T02:31:18.380Z,5.12
2018-12-06T02:33:48.695Z,5.12
2018-12-06T02:36:19.231Z,5.90
2018-12-06T02:38:48.985Z,6.40
2018-12-06T02:41:20.076Z,6.10
2018-12-06T02:43:49.718Z,5.87
2018-12-06T02:46:20.451Z,5.60
2018-12-06T02:48:51.080Z,6.53
2018-12-06T02:51:20.599Z,4.85
2018-12-06T02:53:50.469Z,5.40
2018-12-06T02:56:20.091Z,6.15
2018-12-06T02:58:49.837Z,5.42
2018-12-06T03:01:19.552Z,6.75
2018-12-06T03:03:49.678Z,5.15
2018-12-06T03:06:19.639Z,5.15
2018-12-06T03:08:49.675Z,6.37
2018-12-06T03:11:20.523Z,5.33
2018-12-06T03:13:50.612Z,6.45
2018-12-06T03:16:21.700Z,6.50
2018-12-06T03:18:51.393Z,6.47
2018-12-06T03:21:22.197Z,6.15
2018-12-06T03:23:52.089Z,6.25
2018-12-06T03:26:21.990Z,6.78
2018-12-06T03:28:52.292Z,6.92
2018-12-06T03:31:27.307Z,6.45
2018-12-06T03:33:57.317Z,6.40
2018-12-06T03:36:27.156Z,6.28
2018-12-06T03:39:01.665Z,6.60
2018-12-06T03:41:32.097Z,6.33
2018-12-06T03:44:04.042Z,5.85
2018-12-06T03:46:33.726Z,6.25
2018-12-06T03:49:03.699Z,5.50
2018-12-06T03:51:33.949Z,7.80
2018-12-06T03:54:05.667Z,6.60
2018-12-06T03:56:40.419Z,6.25
2018-12-06T03:59:10.283Z,6.70
2018-12-06T04:01:40.351Z,6.75
2018-12-06T04:04:12.262Z,7.58
2018-12-06T04:06:42.975Z,7.55
2018-12-06T04:09:13.460Z,8.05
2018-12-06T04:11:43.261Z,7.03
2018-12-06T04:14:13.284Z,6.83
2018-12-06T04:16:44.163Z,9.15
2018-12-06T04:19:14.419Z,7.17
2018-12-06T04:21:44.305Z,7.60
2018-12-06T04:24:17.897Z,7.45
2018-12-06T04:26:47.619Z,7.53
2018-12-06T04:29:17.621Z,6.72
2018-12-06T04:31:47.456Z,8.03
2018-12-06T04:34:19.002Z,7.40
2018-12-06T04:36:48.623Z,8.05
2018-12-06T04:39:19.533Z,8.18
2018-12-06T04:41:49.603Z,8.00
2018-12-06T04:44:19.737Z,6.70
2018-12-06T04:46:50.081Z,6.92
2018-12-06T04:49:19.729Z,8.20
2018-12-06T04:51:49.398Z,8.30
2018-12-06T04:54:19.393Z,8.53
2018-12-06T04:56:50.338Z,8.63
2018-12-06T04:59:20.061Z,8.08
2018-12-06T05:01:49.915Z,8.95
2018-12-06T05:04:19.982Z,9.10
2018-12-06T05:06:49.835Z,9.83
2018-12-06T05:09:19.842Z,8.55
2018-12-06T05:11:49.995Z,8.18
2018-12-06T05:14:21.276Z,8.83
2018-12-06T05:16:51.303Z,9.10
2018-12-06T05:19:20.536Z,9.15
2018-12-06T05:21:49.831Z,9.93
2018-12-06T05:24:23.697Z,8.40
2018-12-06T05:26:53.002Z,9.78
2018-12-06T05:29:22.280Z,8.55
2018-12-06T05:31:51.650Z,9.80
2018-12-06T05:34:21.008Z,8.13
2018-12-06T05:36:50.314Z,9.15
2018-12-06T05:39:20.491Z,10.58
2018-12-06T05:41:49.862Z,9.98
2018-12-06T05:44:19.200Z,9.53
2018-12-06T05:46:48.827Z,10.32
2018-12-06T05:49:18.350Z,9.90
2018-12-06T05:51:47.645Z,8.53
2018-12-06T05:54:17.123Z,10.35
2018-12-06T05:56:46.368Z,9.38
2018-12-06T05:59:15.736Z,9.03
2018-12-06T06:01:45.111Z,10.03
2018-12-06T06:04:14.530Z,9.58
2018-12-06T06:06:43.858Z,9.70
2018-12-06T06:09:13.300Z,9.48
2018-12-06T06:11:43.111Z,10.75
2018-12-06T06:14:12.757Z,11.00
2018-12-06T06:16:42.141Z,10.38
2018-12-06T06:19:11.541Z,10.13
2018-12-06T06:21:40.860Z,10.90
2018-12-06T06:24:10.851Z,10.58
2018-12-06T06:26:40.485Z,10.18
2018-12-06T06:29:09.824Z,11.30
2018-12-06T06:31:39.235Z,11.55
2018-12-06T06:34:08.477Z,12.03
2018-12-06T06:36:37.854Z,12.82
2018-12-06T06:39:07.912Z,12.25
2018-12-06T06:41:37.184Z,13.43
2018-12-06T06:44:06.785Z,13.40
2018-12-06T06:46:36.914Z,14.13
2018-12-06T06:49:13.570Z,13.25
2018-12-06T06:51:37.921Z,12.47
2018-12-06T06:54:07.231Z,13.95
2018-12-06T06:56:36.719Z,15.05
2018-12-06T06:59:06.938Z,14.50
2018-12-06T07:01:36.316Z,14.60
2018-12-06T07:04:05.697Z,15.00
2018-12-06T07:06:36.396Z,16.95
2018-12-06T07:09:08.080Z,16.40
2018-12-06T07:11:38.333Z,15.40
2018-12-06T07:14:09.743Z,17.20
2018-12-06T07:16:41.401Z,17.75
2018-12-06T07:19:12.851Z,19.85
2018-12-06T07:21:44.583Z,17.67
2018-12-06T07:24:15.949Z,16.70
2018-12-06T07:26:47.537Z,18.48
2018-12-06T07:29:18.612Z,19.92
2018-12-06T07:31:50.948Z,17.25
2018-12-06T07:34:24.271Z,16.80
2018-12-06T07:36:56.032Z,19.17
2018-12-06T07:39:26.203Z,19.65
2018-12-06T07:41:57.347Z,21.73
2018-12-06T07:44:28.784Z,19.50
2018-12-06T07:47:00.585Z,21.25
2018-12-06T07:49:31.937Z,20.85
2018-12-06T07:52:04.697Z,21.10
2018-12-06T07:54:35.962Z,21.68
2018-12-06T07:57:06.865Z,22.40
2018-12-06T07:59:38.618Z,21.90
2018-12-06T08:02:09.218Z,23.57
2018-12-06T08:04:41.630Z,22.42
2018-12-06T08:07:12.331Z,22.77
2018-12-06T08:09:43.812Z,23.18
2018-12-06T08:12:14.617Z,21.68
2018-12-06T08:14:45.844Z,20.92
2018-12-06T08:17:16.452Z,23.45
2018-12-06T08:19:46.874Z,20.02
2018-12-06T08:22:17.537Z,22.85
2018-12-06T08:24:48.031Z,23.67
2018-12-06T08:27:19.450Z,22.98
2018-12-06T08:29:53.098Z,22.70
2018-12-06T08:32:24.533Z,23.67
2018-12-06T08:34:56.752Z,23.70
2018-12-06T08:37:29.516Z,23.25
2018-12-06T08:40:01.460Z,22.98
2018-12-06T08:42:33.530Z,23.25
2018-12-06T08:45:04.425Z,23.02
2018-12-06T08:47:36.722Z,27.27
2018-12-06T08:50:13.011Z,23.42
2018-12-06T08:52:47.059Z,25.77
2018-12-06T08:55:16.493Z,26.12
2018-12-06T08:57:49.408Z,22.60
2018-12-06T09:00:19.076Z,23.85
2018-12-06T09:02:48.318Z,26.50
2018-12-06T09:05:18.064Z,27.05
2018-12-06T09:07:47.547Z,24.30
2018-12-06T09:10:17.824Z,26.48
2018-12-06T09:12:47.244Z,25.43
2018-12-06T09:15:16.703Z,26.48
2018-12-06T09:17:46.236Z,25.95
2018-12-06T09:20:17.905Z,27.07
2018-12-06T09:22:47.151Z,29.32
2018-12-06T09:25:21.012Z,28.12
2018-12-06T09:27:47.974Z,26.50
2018-12-06T09:30:17.756Z,28.98
2018-12-06T09:32:47.019Z,30.35
2018-12-06T09:35:16.874Z,30.37
2018-12-06T09:37:46.727Z,28.67
2018-12-06T09:40:15.936Z,28.05
2018-12-06T09:42:45.398Z,31.30
2018-12-06T09:45:15.105Z,29.98
2018-12-06T09:47:44.478Z,29.05
2018-12-06T09:50:14.777Z,31.25
2018-12-06T09:52:44.051Z,29.95
2018-12-06T09:55:13.512Z,33.60
2018-12-06T09:57:42.749Z,30.30
2018-12-06T10:00:15.139Z,34.67
2018-12-06T10:02:44.404Z,32.53
2018-12-06T10:05:14.016Z,34.10
2018-12-06T10:07:43.688Z,31.02
2018-12-06T10:10:13.004Z,29.80
2018-12-06T10:12:42.349Z,32.23
2018-12-06T10:15:11.936Z,30.00
2018-12-06T10:17:42.303Z,33.63
2018-12-06T10:20:11.725Z,33.28
2018-12-06T10:22:41.465Z,33.65
2018-12-06T10:25:10.770Z,33.23
2018-12-06T10:27:40.254Z,32.90
2018-12-06T10:30:09.851Z,32.35
2018-12-06T10:32:39.347Z,36.73
2018-12-06T10:35:09.936Z,35.88
2018-12-06T10:37:39.303Z,35.33
2018-12-06T10:40:08.790Z,38.00
2018-12-06T10:42:38.328Z,38.08
2018-12-06T10:45:07.757Z,35.45
2018-12-06T10:47:37.222Z,36.48
2018-12-06T10:50:07.533Z,34.18
2018-12-06T10:52:36.860Z,37.20
2018-12-06T10:55:06.423Z,35.88
2018-12-06T10:57:36.419Z,35.50
2018-12-06T11:00:06.922Z,39.88
2018-12-06T11:02:41.628Z,38.33
2018-12-06T11:05:11.121Z,37.33
2018-12-06T11:07:40.611Z,37.63
2018-12-06T11:10:10.993Z,36.68
2018-12-06T11:12:40.561Z,36.42
2018-12-06T11:15:10.141Z,37.25
2018-12-06T11:17:39.488Z,35.83
2018-12-06T11:20:09.313Z,38.20
2018-12-06T11:22:39.354Z,40.40
2018-12-06T11:25:08.716Z,38.58
2018-12-06T11:27:37.981Z,38.15
2018-12-06T11:30:07.518Z,37.53
2018-12-06T11:32:36.885Z,38.20
2018-12-06T11:35:06.432Z,35.73
2018-12-06T11:37:36.730Z,35.88
2018-12-06T11:40:06.684Z,37.48
2018-12-06T11:42:35.973Z,34.67
2018-12-06T11:45:06.544Z,34.73
2018-12-06T11:47:35.812Z,39.05
2018-12-06T11:50:06.712Z,36.80
2018-12-06T11:52:35.998Z,32.65
2018-12-06T11:55:05.636Z,36.60
2018-12-06T11:57:36.100Z,36.03
2018-12-06T12:00:06.020Z,36.90
2018-12-06T12:02:35.275Z,34.75
2018-12-06T12:05:05.532Z,36.93
2018-12-06T12:07:34.950Z,35.43
2018-12-06T12:10:04.972Z,36.15
2018-12-06T12:12:34.426Z,37.95
2018-12-06T12:15:04.548Z,36.17
2018-12-06T12:17:34.080Z,36.85
2018-12-06T12:20:05.426Z,33.58
2018-12-06T12:22:34.817Z,35.52
2018-12-06T12:25:04.129Z,34.60
2018-12-06T12:27:33.679Z,34.83
2018-12-06T12:30:03.207Z,35.00
2018-12-06T12:32:32.876Z,31.62
2018-12-06T12:35:02.717Z,33.45
2018-12-06T12:37:31.963Z,32.40
2018-12-06T12:40:01.249Z,33.28
2018-12-06T12:42:30.546Z,30.48
2018-12-06T12:44:59.902Z,27.32
2018-12-06T12:47:31.049Z,32.55
2018-12-06T12:50:00.476Z,29.50
2018-12-06T12:52:29.861Z,29.87
2018-12-06T12:54:59.225Z,28.45
2018-12-06T12:57:28.662Z,28.62
2018-12-06T12:59:58.382Z,27.58
2018-12-06T13:02:27.836Z,27.75
2018-12-06T13:04:57.193Z,26.50
2018-12-06T13:07:26.481Z,26.07
2018-12-06T13:09:55.810Z,25.48
2018-12-06T13:12:25.072Z,25.27
2018-12-06T13:14:54.436Z,25.30
2018-12-06T13:17:25.183Z,24.50
2018-12-06T13:19:54.990Z,26.57
2018-12-06T13:22:24.599Z,26.23
2018-12-06T13:24:53.899Z,27.00
2018-12-06T13:27:23.415Z,26.70
2018-12-06T13:29:52.738Z,25.12
2018-12-06T13:32:22.359Z,26.52
2018-12-06T13:34:51.832Z,26.40
2018-12-06T13:37:21.465Z,24.57
2018-12-06T13:39:50.868Z,23.52
2018-12-06T13:42:23.512Z,23.92
2018-12-06T13:44:51.554Z,24.77
2018-12-06T13:47:20.957Z,24.60
2018-12-06T13:49:52.764Z,25.30
2018-12-06T13:52:24.369Z,27.10
2018-12-06T13:54:56.014Z,26.05
2018-12-06T13:57:25.721Z,25.62
2018-12-06T13:59:55.000Z,26.85
2018-12-06T14:02:24.397Z,26.70
2018-12-06T14:04:53.744Z,25.40
2018-12-06T14:07:23.163Z,24.47
2018-12-06T14:09:52.428Z,26.15
2018-12-06T14:12:21.937Z,24.98
2018-12-06T14:14:51.214Z,24.90
2018-12-06T14:17:20.509Z,27.10
2018-12-06T14:19:49.784Z,27.00
2018-12-06T14:22:19.028Z,28.30
2018-12-06T14:24:48.468Z,25.83
2018-12-06T14:27:18.426Z,27.93
2018-12-06T14:29:47.713Z,25.60
2018-12-06T14:32:17.051Z,26.63
2018-12-06T14:34:46.390Z,28.87
2018-12-06T14:37:15.786Z,29.63
2018-12-06T14:39:46.453Z,24.37
2018-12-06T14:42:15.767Z,26.10
2018-12-06T14:44:45.229Z,24.67
2018-12-06T14:47:14.496Z,23.87
2018-12-06T14:49:43.870Z,24.47
2018-12-06T14:52:13.293Z,25.43
2018-12-06T14:54:43.716Z,25.73
2018-12-06T14:57:13.091Z,24.33
2018-12-06T14:59:43.295Z,24.60
2018-12-06T15:02:12.626Z,27.13
2018-12-06T15:04:41.934Z,24.53
2018-12-06T15:07:11.248Z,25.10
2018-12-06T15:09:40.971Z,22.33
2018-12-06T15:12:10.273Z,23.20
2018-12-06T15:14:39.600Z,22.83
2018-12-06T15:17:09.866Z,21.27
2018-12-06T15:19:39.360Z,21.53
2018-12-06T15:22:08.650Z,20.60
2018-12-06T15:24:37.941Z,19.90
2018-12-06T15:27:07.266Z,18.60
2018-12-06T15:29:36.614Z,20.10
2018-12-06T15:32:06.279Z,19.80
2018-12-06T15:34:35.528Z,20.80
2018-12-06T15:37:05.129Z,18.43
2018-12-06T15:39:35.617Z,20.63
2018-12-06T15:42:05.268Z,20.87
2018-12-06T15:44:34.682Z,21.00
2018-12-06T15:47:05.985Z,19.63
2018-12-06T15:49:35.273Z,19.10
2018-12-06T15:52:05.204Z,20.53
2018-12-06T15:54:35.430Z,26.80
2018-12-06T15:57:04.812Z,17.53
2018-12-06T15:59:34.057Z,18.10
2018-12-06T16:02:04.341Z,18.53
2018-12-06T16:04:33.900Z,19.40
2018-12-06T16:07:03.606Z,19.63
2018-12-06T16:09:33.013Z,18.97
2018-12-06T16:12:02.321Z,20.90
2018-12-06T16:14:31.628Z,20.90
2018-12-06T16:17:00.946Z,20.83
2018-12-06T16:19:30.421Z,21.40
2018-12-06T16:21:59.681Z,24.07
2018-12-06T16:24:29.133Z,23.17
2018-12-06T16:26:58.452Z,24.10
2018-12-06T16:29:27.765Z,24.77
2018-12-06T16:31:57.360Z,25.20
2018-12-06T16:34:26.584Z,26.30
2018-12-06T16:36:55.913Z,26.00
2018-12-06T16:39:26.049Z,26.00
2018-12-06T16:41:55.498Z,26.20
2018-12-06T16:44:24.940Z,25.77
2018-12-06T16:46:54.226Z,26.27
2018-12-06T16:49:24.590Z,25.20
2018-12-06T16:51:54.459Z,27.20
2018-12-06T16:54:23.718Z,24.70
2018-12-06T16:56:52.996Z,28.03
2018-12-06T16:59:33.503Z,25.60
2018-12-06T17:02:03.066Z,27.70
2018-12-06T17:04:33.456Z,26.20
2018-12-06T17:07:04.261Z,27.90
2018-12-06T17:09:35.052Z,26.37
2018-12-06T17:12:04.384Z,27.73
2018-12-06T17:14:35.352Z,25.40
2018-12-06T17:17:04.623Z,25.40
2018-12-06T17:19:33.944Z,26.27
2018-12-06T17:22:05.624Z,26.60
2018-12-06T17:24:34.963Z,25.57
2018-12-06T17:27:04.220Z,24.80
2018-12-06T17:29:33.653Z,24.57
2018-12-06T17:32:03.096Z,24.13
2018-12-06T17:34:32.496Z,25.43
2018-12-06T17:37:01.934Z,38.90
2018-12-06T17:39:31.255Z,22.40
2018-12-06T17:42:00.541Z,20.50
2018-12-06T17:44:30.066Z,20.87
2018-12-06T17:47:01.201Z,20.03
2018-12-06T17:52:19.857Z,18.83
2018-12-06T17:54:49.080Z,19.90
2018-12-06T17:57:18.910Z,18.00
2018-12-06T17:59:48.135Z,19.37
2018-12-06T18:02:17.463Z,20.07
2018-12-06T18:04:46.868Z,20.40
2018-12-06T18:07:16.671Z,19.10
2018-12-06T18:09:47.706Z,20.63
2018-12-06T18:12:17.280Z,19.40
2018-12-06T18:14:46.645Z,20.73
2018-12-06T18:17:16.012Z,18.00
2018-12-06T18:19:45.468Z,18.23
2018-12-06T18:22:14.677Z,18.10
2018-12-06T18:24:43.966Z,18.30
2018-12-06T18:27:14.830Z,18.60
2018-12-06T18:29:44.457Z,17.00
2018-12-06T18:32:13.738Z,17.37
2018-12-06T18:34:44.003Z,16.83
2018-12-06T18:37:13.400Z,16.87
2018-12-06T18:39:43.360Z,15.97
2018-12-06T18:42:12.687Z,16.23
2018-12-06T18:44:41.969Z,17.00
2018-12-06T18:47:14.650Z,17.10
2018-12-06T18:49:43.888Z,16.67
2018-12-06T18:52:13.468Z,16.40
2018-12-06T18:54:42.826Z,16.30
2018-12-06T18:57:13.113Z,14.33
2018-12-06T18:59:42.380Z,16.60
2018-12-06T19:02:11.721Z,16.37
2018-12-06T19:04:41.151Z,16.07
2018-12-06T19:07:10.618Z,15.70
2018-12-06T19:09:39.891Z,15.50
2018-12-06T19:12:10.262Z,17.60
2018-12-06T19:14:39.645Z,15.37
2018-12-06T19:17:08.946Z,15.03
2018-12-06T19:19:38.400Z,16.53
2018-12-06T19:22:07.761Z,17.30
2018-12-06T19:24:37.042Z,15.47
2018-12-06T19:27:06.388Z,16.30
2018-12-06T19:29:35.745Z,15.53
2018-12-06T19:32:05.409Z,16.50
2018-12-06T19:34:35.985Z,16.73
2018-12-06T19:37:05.296Z,15.83
2018-12-06T19:39:34.567Z,28.17
2018-12-06T19:42:04.060Z,18.20
2018-12-06T19:44:33.445Z,18.40
2018-12-06T19:47:02.786Z,18.03
2018-12-06T19:49:32.057Z,17.73
2018-12-06T19:52:01.886Z,17.30
2018-12-06T19:54:31.284Z,15.73
2018-12-06T19:57:00.747Z,16.13
2018-12-06T19:59:30.225Z,17.23
2018-12-06T20:01:59.779Z,16.00
2018-12-06T20:04:29.469Z,15.50
2018-12-06T20:06:58.976Z,16.37
2018-12-06T20:09:28.248Z,15.37
2018-12-06T20:11:59.462Z,13.90
2018-12-06T20:14:28.718Z,16.77
2018-12-06T20:17:01.715Z,16.10
2018-12-06T20:19:30.967Z,15.60
2018-12-06T20:22:00.468Z,16.20
2018-12-06T20:24:30.561Z,14.30
2018-12-06T20:26:59.958Z,16.00
2018-12-06T20:29:29.260Z,14.30
2018-12-06T20:31:59.981Z,15.13
2018-12-06T20:34:29.226Z,18.10
2018-12-06T20:36:58.545Z,19.50
2018-12-06T20:39:27.868Z,17.70
2018-12-06T20:41:58.691Z,19.10
2018-12-06T20:44:28.008Z,19.00
2018-12-06T20:46:58.190Z,19.30
2018-12-06T20:49:27.892Z,17.07
2018-12-06T20:51:57.286Z,18.40
2018-12-06T20:54:26.628Z,17.93
2018-12-06T20:56:56.305Z,19.30
2018-12-06T20:59:25.745Z,19.87
2018-12-06T21:01:55.235Z,18.27
2018-12-06T21:04:25.062Z,19.00
2018-12-06T21:06:55.098Z,18.73
2018-12-06T21:09:26.213Z,18.90
2018-12-06T21:11:55.495Z,19.97
2018-12-06T21:14:25.291Z,18.60
2018-12-06T21:16:54.538Z,18.80
2018-12-06T21:19:23.872Z,17.97
2018-12-06T21:21:53.327Z,18.70
2018-12-06T21:24:22.554Z,20.03
2018-12-06T21:26:51.905Z,19.00
2018-12-06T21:29:21.656Z,21.43
2018-12-06T21:31:50.947Z,21.27
2018-12-06T21:34:20.212Z,22.33
2018-12-06T21:36:50.816Z,20.83
2018-12-06T21:39:20.369Z,23.40
2018-12-06T21:41:49.822Z,21.17
2018-12-06T21:44:20.310Z,21.43
2018-12-06T21:46:49.613Z,21.17
2018-12-06T21:49:19.044Z,24.97
2018-12-06T21:51:48.466Z,21.93
2018-12-06T21:54:17.815Z,20.07
2018-12-06T21:56:47.438Z,21.77
2018-12-06T21:59:16.967Z,20.27
2018-12-06T22:01:46.451Z,18.37
2018-12-06T22:04:15.705Z,17.33
2018-12-06T22:06:45.042Z,17.57
2018-12-06T22:09:15.356Z,17.03
2018-12-06T22:11:44.687Z,16.50
2018-12-06T22:14:14.027Z,17.03
2018-12-06T22:16:43.357Z,16.43
2018-12-06T22:19:12.626Z,18.83
2018-12-06T22:21:42.003Z,17.77
2018-12-06T22:24:11.392Z,19.70
2018-12-06T22:26:40.972Z,17.00
2018-12-06T22:29:10.388Z,17.07
2018-12-06T22:31:39.670Z,15.53
2018-12-06T22:34:09.104Z,15.43
2018-12-06T22:36:38.444Z,16.07
2018-12-06T22:39:08.052Z,14.30
2018-12-06T22:41:37.394Z,13.67
2018-12-06T22:44:06.675Z,13.20
2018-12-06T22:46:35.984Z,13.50
2018-12-06T22:49:05.467Z,12.40
2018-12-06T22:51:34.767Z,12.87
2018-12-06T22:54:04.627Z,11.73
2018-12-06T22:56:33.891Z,12.17
2018-12-06T22:59:03.445Z,11.37
2018-12-06T23:01:37.996Z,11.17
2018-12-06T23:04:07.280Z,11.80
2018-12-06T23:06:36.843Z,10.77
2018-12-06T23:09:09.207Z,10.27
2018-12-06T23:11:39.047Z,10.23
2018-12-06T23:14:08.368Z,10.27
2018-12-06T23:16:38.903Z,11.30
2018-12-06T23:19:08.305Z,9.77
2018-12-06T23:21:37.928Z,10.40
2018-12-06T23:24:08.981Z,8.13
2018-12-06T23:26:38.485Z,8.87
2018-12-06T23:29:07.744Z,8.13
2018-12-06T23:31:37.420Z,8.03
2018-12-06T23:34:06.633Z,7.57
2018-12-06T23:36:36.332Z,7.73
2018-12-06T23:39:07.742Z,7.80
2018-12-06T23:41:37.007Z,8.07
2018-12-06T23:44:06.280Z,7.67
2018-12-06T23:46:35.557Z,8.37
2018-12-06T23:49:05.348Z,7.50
2018-12-06T23:51:39.345Z,8.60
2018-12-06T23:54:08.952Z,8.20
2018-12-06T23:56:38.217Z,6.70
2018-12-06T23:59:07.534Z,7.30
